Time;durP1;ratioP1;P1;durP2;ratioP2;P2;SDS_P1;SDS_P2;PMS_P1;PMS_P2;Temp;Humidity;BMP_temperature;BMP_pressure;BME280_temperature;BME280_humidity;BME280_pressure;Samples;Min_cycle;Max_cycle;Signal;HPM_P1;HPM_P2
2021/09/18 00:00:41;;;;;;;27.63;20.40;;;15.10;99.90;;;;;;5032323;28;38672;-82
2021/09/18 00:03:07;;;;;;;25.25;19.02;;;15.00;99.90;;;;;;5032256;28;34049;-82
2021/09/18 00:05:33;;;;;;;29.65;21.33;;;15.00;99.90;;;;;;5042832;28;38644;-82
2021/09/18 00:08:00;;;;;;;32.05;22.17;;;15.00;99.90;;;;;;5047533;28;37650;-81
2021/09/18 00:10:26;;;;;;;33.33;23.83;;;15.10;99.90;;;;;;5034069;28;38981;-81
2021/09/18 00:12:52;;;;;;;31.60;23.77;;;15.10;99.90;;;;;;5027130;28;37641;-81
2021/09/18 00:15:18;;;;;;;34.67;24.08;;;15.10;99.90;;;;;;5029794;28;39522;-81
2021/09/18 00:17:44;;;;;;;32.00;22.73;;;15.10;99.90;;;;;;5033970;28;38679;-81
2021/09/18 00:20:10;;;;;;;30.50;21.63;;;15.20;99.90;;;;;;5028270;28;39715;-82
2021/09/18 00:22:37;;;;;;;26.80;20.25;;;15.20;99.90;;;;;;5013051;28;37935;-82
2021/09/18 00:25:03;;;;;;;31.58;23.20;;;15.30;99.90;;;;;;5014295;28;38918;-81
2021/09/18 00:27:29;;;;;;;27.08;20.33;;;15.30;99.90;;;;;;5016410;28;40824;-82
2021/09/18 00:29:55;;;;;;;30.27;23.02;;;15.30;99.90;;;;;;5034118;28;39137;-81
2021/09/18 00:32:21;;;;;;;34.30;24.38;;;15.30;99.90;;;;;;5036624;28;38056;-82
2021/09/18 00:34:47;;;;;;;31.13;23.92;;;15.40;99.90;;;;;;5051664;28;37437;-83
2021/09/18 00:37:13;;;;;;;38.33;26.70;;;15.40;99.90;;;;;;5035070;28;39873;-82
2021/09/18 00:39:42;;;;;;;39.45;27.08;;;15.50;99.90;;;;;;5042422;28;38662;-82
2021/09/18 00:42:08;;;;;;;36.63;25.98;;;15.50;99.90;;;;;;5030732;28;36245;-81
2021/09/18 00:44:34;;;;;;;40.45;27.13;;;15.50;99.90;;;;;;5043574;28;38623;-82
2021/09/18 00:47:00;;;;;;;38.33;26.52;;;15.60;99.90;;;;;;5034123;28;38422;-82
2021/09/18 00:49:26;;;;;;;39.65;27.75;;;15.60;99.90;;;;;;5029218;28;47813;-81
2021/09/18 00:51:52;;;;;;;36.85;26.85;;;15.60;99.90;;;;;;5032171;28;37282;-82
2021/09/18 00:54:18;;;;;;;36.33;24.60;;;15.60;99.90;;;;;;5027881;28;39160;-81
2021/09/18 00:56:45;;;;;;;35.45;25.73;;;15.60;99.90;;;;;;5027787;28;39559;-81
2021/09/18 00:59:11;;;;;;;38.42;27.17;;;15.60;99.90;;;;;;5025551;28;41243;-82
2021/09/18 01:01:38;;;;;;;31.33;24.20;;;15.60;99.90;;;;;;5029273;28;39479;-81
2021/09/18 01:04:04;;;;;;;36.45;26.55;;;15.60;99.90;;;;;;5034803;28;38680;-81
2021/09/18 01:06:31;;;;;;;36.15;25.20;;;15.50;99.90;;;;;;5036785;28;38604;-82
2021/09/18 01:08:58;;;;;;;37.10;24.33;;;15.50;99.90;;;;;;5050301;28;35804;-82
2021/09/18 01:11:25;;;;;;;37.60;25.98;;;15.50;99.90;;;;;;5034603;28;37425;-81
2021/09/18 01:13:51;;;;;;;36.38;25.30;;;15.50;99.90;;;;;;5032555;28;37339;-82
2021/09/18 01:16:21;;;;;;;36.25;24.73;;;15.50;99.90;;;;;;5032622;28;39274;-81
2021/09/18 01:18:49;;;;;;;39.47;27.58;;;15.50;99.90;;;;;;5049105;28;39943;-82
2021/09/18 01:21:16;;;;;;;40.40;27.67;;;15.40;99.90;;;;;;5033280;28;38814;-81
2021/09/18 01:23:42;;;;;;;34.75;25.20;;;15.40;99.90;;;;;;5041658;28;38046;-82
2021/09/18 01:26:09;;;;;;;40.05;26.45;;;15.50;99.90;;;;;;5032097;28;37200;-82
2021/09/18 01:28:39;;;;;;;40.65;28.52;;;15.40;99.90;;;;;;5029581;28;38643;-82
2021/09/18 01:31:06;;;;;;;38.50;27.52;;;15.40;99.90;;;;;;5030320;28;36483;-82
2021/09/18 01:33:32;;;;;;;45.28;31.10;;;15.40;99.90;;;;;;5035978;28;38893;-82
2021/09/18 01:35:58;;;;;;;54.50;36.25;;;15.50;99.90;;;;;;5036946;28;38286;-82
2021/09/18 01:38:24;;;;;;;53.40;35.55;;;15.50;99.90;;;;;;5034775;28;39134;-82
2021/09/18 01:40:50;;;;;;;59.53;36.67;;;15.50;99.90;;;;;;5037749;28;37362;-82
2021/09/18 01:43:17;;;;;;;67.65;40.03;;;15.50;99.90;;;;;;5030529;28;39264;-82
2021/09/18 01:45:43;;;;;;;58.75;37.08;;;15.50;99.90;;;;;;5040740;28;39208;-82
2021/09/18 01:48:13;;;;;;;53.58;36.45;;;15.50;99.90;;;;;;5030901;28;39152;-82
2021/09/18 01:50:51;;;;;;;58.45;35.15;;;15.40;99.90;;;;;;5049833;28;37695;-83
2021/09/18 01:53:19;;;;;;;54.63;35.60;;;15.40;99.90;;;;;;5033809;28;39301;-82
2021/09/18 01:55:47;;;;;;;58.78;37.47;;;15.30;99.90;;;;;;5033652;28;39193;-82
2021/09/18 01:58:13;;;;;;;54.53;35.13;;;15.30;99.90;;;;;;5029513;28;38534;-82
2021/09/18 02:00:48;;;;;;;54.35;35.35;;;15.20;99.90;;;;;;5035786;28;37691;-82
2021/09/18 02:03:14;;;;;;;61.10;39.00;;;15.20;99.90;;;;;;5029225;28;40010;-82
2021/09/18 02:05:40;;;;;;;54.53;34.88;;;15.10;99.90;;;;;;5035562;28;38355;-82
2021/09/18 02:08:06;;;;;;;56.15;35.55;;;15.10;99.90;;;;;;5048752;28;37922;-83
2021/09/18 02:10:34;;;;;;;55.67;37.03;;;15.10;99.90;;;;;;5030842;28;39102;-82
2021/09/18 02:13:02;;;;;;;51.50;33.60;;;15.10;99.90;;;;;;5027925;28;37627;-82
2021/09/18 02:15:28;;;;;;;49.38;31.92;;;15.00;99.90;;;;;;5023128;28;47281;-82
2021/09/18 02:17:55;;;;;;;50.00;32.50;;;15.00;99.90;;;;;;5032627;28;38676;-81
2021/09/18 02:20:24;;;;;;;51.65;33.53;;;15.00;99.90;;;;;;5036160;28;38029;-82
2021/09/18 02:22:50;;;;;;;52.88;32.10;;;14.90;99.90;;;;;;5036291;28;39334;-82
2021/09/18 02:25:16;;;;;;;43.22;29.17;;;14.90;99.90;;;;;;5033047;28;37113;-82
2021/09/18 02:27:43;;;;;;;53.78;34.72;;;14.80;99.90;;;;;;5033100;28;38878;-83
2021/09/18 02:30:13;;;;;;;43.33;30.70;;;14.90;99.90;;;;;;5031155;28;38081;-82
2021/09/18 02:32:39;;;;;;;49.38;32.92;;;14.80;99.90;;;;;;5033457;28;38984;-82
2021/09/18 02:35:07;;;;;;;46.35;30.55;;;14.80;99.90;;;;;;5032097;28;37446;-81
2021/09/18 02:37:34;;;;;;;51.40;33.78;;;14.80;99.90;;;;;;5029375;28;38733;-82
2021/09/18 02:40:00;;;;;;;56.42;37.50;;;14.70;99.90;;;;;;5028516;28;38122;-82
2021/09/18 02:42:26;;;;;;;61.50;38.63;;;14.70;99.90;;;;;;5024360;28;39570;-82
2021/09/18 02:44:52;;;;;;;52.70;33.63;;;14.70;99.90;;;;;;5027371;28;38082;-82
2021/09/18 02:47:18;;;;;;;52.58;33.60;;;14.70;99.90;;;;;;5035524;28;40190;-82
2021/09/18 02:49:44;;;;;;;42.72;30.90;;;14.70;99.90;;;;;;5034792;28;37008;-82
2021/09/18 02:52:11;;;;;;;43.30;29.00;;;14.70;99.90;;;;;;5030405;28;39768;-81
2021/09/18 02:54:37;;;;;;;46.67;31.02;;;14.70;99.90;;;;;;5028879;28;39431;-82
2021/09/18 02:57:03;;;;;;;45.45;30.77;;;14.60;99.90;;;;;;5041567;28;38521;-82
2021/09/18 02:59:29;;;;;;;42.85;29.15;;;14.60;99.90;;;;;;5032574;28;37591;-82
2021/09/18 03:01:56;;;;;;;41.60;28.00;;;14.60;99.90;;;;;;5030323;28;39562;-82
2021/09/18 03:04:23;;;;;;;41.67;28.48;;;14.60;99.90;;;;;;5026430;28;39317;-82
2021/09/18 03:06:49;;;;;;;42.28;28.20;;;14.60;99.90;;;;;;5027540;28;38837;-82
2021/09/18 03:09:15;;;;;;;41.95;28.33;;;14.50;99.90;;;;;;5045041;28;35987;-82
2021/09/18 03:11:41;;;;;;;40.83;29.10;;;14.40;99.90;;;;;;5032008;28;38784;-83
2021/09/18 03:14:07;;;;;;;47.85;30.45;;;14.40;99.90;;;;;;5033408;28;37717;-82
2021/09/18 03:16:33;;;;;;;43.90;29.92;;;14.40;99.90;;;;;;5032907;28;37268;-82
2021/09/18 03:19:00;;;;;;;50.88;33.05;;;14.40;99.90;;;;;;5033064;28;39189;-83
2021/09/18 03:21:26;;;;;;;40.63;27.50;;;14.40;99.90;;;;;;5032754;28;38669;-82
2021/09/18 03:23:52;;;;;;;45.92;29.67;;;14.40;99.90;;;;;;5025474;28;39608;-82
2021/09/18 03:26:18;;;;;;;46.00;31.13;;;14.40;99.90;;;;;;5030887;28;37869;-82
2021/09/18 03:28:44;;;;;;;48.08;32.38;;;14.40;99.90;;;;;;5030337;28;37476;-82
2021/09/18 03:31:10;;;;;;;45.30;30.65;;;14.40;99.90;;;;;;5026548;28;38387;-82
2021/09/18 03:33:36;;;;;;;43.65;28.88;;;14.50;99.90;;;;;;5034032;28;39159;-82
2021/09/18 03:36:02;;;;;;;63.85;37.80;;;14.50;99.90;;;;;;5031785;28;37822;-82
2021/09/18 03:38:28;;;;;;;51.17;34.20;;;14.50;99.90;;;;;;5026376;28;37638;-83
2021/09/18 03:40:54;;;;;;;48.95;32.90;;;14.60;99.90;;;;;;5031998;28;39138;-82
2021/09/18 03:43:20;;;;;;;51.17;34.05;;;14.60;99.90;;;;;;5030518;28;38636;-83
2021/09/18 03:45:46;;;;;;;52.13;32.33;;;14.60;99.90;;;;;;5032653;28;38237;-82
2021/09/18 03:48:12;;;;;;;55.53;36.08;;;14.60;99.90;;;;;;5044388;28;36434;-82
2021/09/18 03:50:39;;;;;;;73.03;42.42;;;14.70;99.90;;;;;;5034170;28;39759;-82
2021/09/18 03:53:05;;;;;;;52.72;35.92;;;14.70;99.90;;;;;;5032721;28;38672;-82
2021/09/18 03:55:31;;;;;;;51.55;32.20;;;14.80;99.90;;;;;;5028917;28;38871;-82
2021/09/18 03:57:57;;;;;;;55.30;35.85;;;14.80;99.90;;;;;;5014182;28;37101;-82
2021/09/18 04:00:23;;;;;;;49.42;32.13;;;14.80;99.90;;;;;;5018576;28;37786;-82
2021/09/18 04:02:49;;;;;;;43.85;31.23;;;14.80;99.90;;;;;;5018664;28;38894;-81
2021/09/18 04:05:15;;;;;;;50.97;33.08;;;14.80;99.90;;;;;;5020276;28;39184;-82
2021/09/18 04:07:41;;;;;;;47.85;32.20;;;14.80;99.90;;;;;;5017633;28;38871;-82
2021/09/18 04:10:08;;;;;;;50.00;33.60;;;14.80;99.90;;;;;;5030449;28;35251;-82
2021/09/18 04:12:34;;;;;;;48.97;33.13;;;14.80;99.90;;;;;;5031333;28;38953;-82
2021/09/18 04:15:02;;;;;;;47.25;33.33;;;14.80;99.90;;;;;;5028602;28;38661;-82
2021/09/18 04:17:28;;;;;;;53.22;35.00;;;14.80;99.90;;;;;;5031666;28;47246;-82
2021/09/18 04:19:55;;;;;;;56.08;36.17;;;14.90;99.90;;;;;;5036262;28;39571;-82
2021/09/18 04:22:21;;;;;;;51.60;35.65;;;14.90;99.90;;;;;;5017822;28;37102;-82
2021/09/18 04:24:51;;;;;;;50.83;32.85;;;14.90;99.90;;;;;;5037290;28;39549;-82
2021/09/18 04:27:17;;;;;;;69.30;39.50;;;14.90;99.90;;;;;;5029804;28;38854;-82
2021/09/18 04:29:44;;;;;;;56.25;36.15;;;14.90;99.90;;;;;;5037864;28;39065;-83
2021/09/18 04:32:10;;;;;;;53.97;36.00;;;14.90;99.90;;;;;;5036941;28;37846;-82
2021/09/18 04:34:36;;;;;;;49.63;32.80;;;14.90;99.90;;;;;;5036354;28;38974;-82
2021/09/18 04:37:11;;;;;;;73.00;41.78;;;14.90;99.90;;;;;;5042659;28;36268;-82
2021/09/18 04:39:37;;;;;;;59.35;36.72;;;14.90;99.90;;;;;;5037092;28;38815;-82
2021/09/18 04:42:03;;;;;;;64.05;38.67;;;14.90;99.90;;;;;;5039731;28;39208;-82
2021/09/18 04:44:32;;;;;;;56.50;36.72;;;14.90;99.90;;;;;;5044915;28;40173;-83
2021/09/18 04:47:01;;;;;;;56.67;36.70;;;14.90;99.90;;;;;;5026078;28;38755;-83
2021/09/18 04:49:30;;;;;;;73.68;42.88;;;14.90;99.90;;;;;;5019951;28;48886;-82
2021/09/18 04:51:56;;;;;;;77.68;44.55;;;14.90;99.90;;;;;;5027599;28;38902;-82
2021/09/18 04:54:22;;;;;;;69.07;41.05;;;14.90;99.90;;;;;;5028123;28;38280;-82
2021/09/18 04:56:48;;;;;;;61.72;40.10;;;15.00;99.90;;;;;;5054356;28;38631;-82
2021/09/18 04:59:14;;;;;;;79.72;45.83;;;15.00;99.90;;;;;;5045203;28;38777;-82
2021/09/18 05:01:40;;;;;;;68.53;42.00;;;15.00;99.90;;;;;;5033540;28;38206;-82
2021/09/18 05:04:06;;;;;;;91.50;49.65;;;15.00;99.90;;;;;;5047059;28;38765;-82
2021/09/18 05:06:33;;;;;;;92.65;50.55;;;15.00;99.90;;;;;;5047398;28;37507;-82
2021/09/18 05:08:59;;;;;;;90.20;49.45;;;15.10;99.90;;;;;;5034688;28;39106;-79
2021/09/18 05:11:25;;;;;;;83.22;48.08;;;15.10;99.90;;;;;;5034836;28;37222;-82
2021/09/18 05:13:51;;;;;;;86.13;49.53;;;15.10;99.90;;;;;;5050276;28;38587;-82
2021/09/18 05:16:17;;;;;;;84.53;48.35;;;15.10;99.90;;;;;;5050331;28;37413;-83
2021/09/18 05:18:43;;;;;;;82.05;47.92;;;15.10;99.90;;;;;;5026655;28;37561;-82
2021/09/18 05:21:09;;;;;;;90.90;51.20;;;15.10;99.90;;;;;;5033590;28;38726;-82
2021/09/18 05:23:36;;;;;;;94.38;52.58;;;15.10;99.90;;;;;;5053635;28;38223;-82
2021/09/18 05:26:02;;;;;;;95.80;51.10;;;15.20;99.90;;;;;;5053535;28;37444;-82
2021/09/18 05:28:29;;;;;;;76.18;44.97;;;15.20;99.90;;;;;;5048692;28;39218;-82
2021/09/18 05:30:55;;;;;;;104.88;52.78;;;15.20;99.90;;;;;;5032555;28;39549;-82
2021/09/18 05:33:21;;;;;;;81.07;47.50;;;15.30;99.90;;;;;;5058285;28;38487;-82
2021/09/18 05:35:47;;;;;;;89.32;49.50;;;15.30;99.90;;;;;;5053416;28;38307;-82
2021/09/18 05:38:13;;;;;;;95.60;50.83;;;15.30;99.90;;;;;;5036475;28;39939;-82
2021/09/18 05:40:39;;;;;;;84.05;49.17;;;15.30;99.90;;;;;;5054017;28;38544;-82
2021/09/18 05:43:05;;;;;;;83.43;47.35;;;15.30;99.90;;;;;;5038312;28;37397;-82
2021/09/18 05:45:32;;;;;;;90.32;49.97;;;15.40;99.90;;;;;;5034735;28;36931;-82
2021/09/18 05:47:58;;;;;;;85.85;48.60;;;15.40;99.90;;;;;;5036802;28;38757;-82
2021/09/18 05:50:25;;;;;;;92.60;51.35;;;15.50;99.90;;;;;;5050123;28;38026;-82
2021/09/18 05:52:51;;;;;;;84.50;47.80;;;15.50;99.90;;;;;;5035124;28;37442;-82
2021/09/18 05:55:17;;;;;;;82.05;48.83;;;15.60;99.90;;;;;;5049391;28;36266;-81
2021/09/18 05:57:43;;;;;;;73.30;45.22;;;15.60;99.90;;;;;;5039744;28;37830;-82
2021/09/18 06:00:10;;;;;;;93.30;50.28;;;15.60;99.90;;;;;;5034306;28;39591;-82
2021/09/18 06:02:37;;;;;;;76.28;45.05;;;15.60;99.90;;;;;;5053957;28;38219;-82
2021/09/18 06:05:03;;;;;;;69.82;44.22;;;15.70;99.90;;;;;;5053600;28;37991;-82
2021/09/18 06:07:29;;;;;;;84.53;48.47;;;15.70;99.90;;;;;;5049189;28;37830;-82
2021/09/18 06:09:55;;;;;;;99.38;54.65;;;15.70;99.90;;;;;;5051029;28;38178;-82
2021/09/18 06:12:21;;;;;;;87.68;51.97;;;15.80;99.90;;;;;;5055227;28;38112;-82
2021/09/18 06:14:47;;;;;;;107.55;58.90;;;15.80;99.90;;;;;;5033214;28;36463;-83
2021/09/18 06:17:13;;;;;;;92.47;54.05;;;15.80;99.90;;;;;;5034374;28;39008;-82
2021/09/18 06:19:39;;;;;;;86.82;50.38;;;15.90;99.90;;;;;;5034839;28;38902;-82
2021/09/18 06:22:06;;;;;;;92.43;55.65;;;16.00;99.90;;;;;;5031527;28;37838;-82
2021/09/18 06:24:32;;;;;;;100.10;57.95;;;16.00;99.90;;;;;;5049479;28;38001;-82
2021/09/18 06:26:58;;;;;;;81.38;52.83;;;16.00;99.90;;;;;;5048520;28;38540;-81
2021/09/18 06:29:26;;;;;;;92.97;56.72;;;16.10;99.90;;;;;;5050147;28;38622;-81
2021/09/18 06:31:52;;;;;;;99.80;58.08;;;16.10;99.90;;;;;;5053156;28;39740;-81
2021/09/18 06:34:18;;;;;;;82.45;52.50;;;16.20;99.90;;;;;;5035401;28;35954;-81
2021/09/18 06:36:45;;;;;;;93.20;54.53;;;16.20;99.90;;;;;;5047287;28;40226;-82
2021/09/18 06:39:11;;;;;;;85.47;52.97;;;16.20;99.90;;;;;;5034712;28;39238;-82
2021/09/18 06:41:37;;;;;;;86.75;53.90;;;16.30;99.90;;;;;;5031803;28;40060;-82
2021/09/18 06:44:03;;;;;;;81.40;52.60;;;16.30;99.90;;;;;;5049673;28;38364;-81
2021/09/18 06:46:29;;;;;;;78.25;51.88;;;16.40;99.90;;;;;;5051044;28;39499;-81
2021/09/18 06:48:55;;;;;;;77.53;50.35;;;16.40;99.90;;;;;;5049767;28;38174;-81
2021/09/18 06:51:22;;;;;;;84.30;54.60;;;16.40;99.90;;;;;;5046633;28;38850;-82
2021/09/18 06:53:48;;;;;;;75.78;50.35;;;16.40;99.90;;;;;;5052803;28;37576;-82
2021/09/18 06:56:14;;;;;;;85.40;53.80;;;16.40;99.90;;;;;;5050987;28;38852;-81
2021/09/18 06:58:40;;;;;;;83.97;54.70;;;16.40;99.90;;;;;;5034549;28;38949;-82
2021/09/18 07:01:06;;;;;;;76.05;49.78;;;16.50;99.90;;;;;;5033419;28;38422;-81
2021/09/18 07:03:33;;;;;;;80.35;52.05;;;16.60;99.90;;;;;;5052952;28;37229;-81
2021/09/18 07:06:00;;;;;;;82.35;52.05;;;16.60;99.90;;;;;;5028739;28;39347;-81
2021/09/18 07:08:26;;;;;;;68.20;46.67;;;16.70;99.90;;;;;;5036220;28;47381;-82
2021/09/18 07:10:53;;;;;;;69.88;47.17;;;16.80;99.90;;;;;;5058541;28;38591;-82
2021/09/18 07:13:19;;;;;;;67.68;43.60;;;16.80;99.90;;;;;;5056547;28;38947;-83
2021/09/18 07:15:45;;;;;;;59.40;43.03;;;17.00;99.90;;;;;;5043009;28;37721;-82
2021/09/18 07:18:11;;;;;;;62.40;43.63;;;17.10;99.90;;;;;;5056212;28;39249;-83
2021/09/18 07:20:37;;;;;;;70.78;46.00;;;17.10;99.90;;;;;;5056920;28;36580;-82
2021/09/18 07:23:04;;;;;;;57.33;40.72;;;17.30;99.90;;;;;;5041813;28;37304;-81
2021/09/18 07:25:30;;;;;;;63.05;42.55;;;17.30;99.90;;;;;;5039133;28;38787;-82
2021/09/18 07:27:56;;;;;;;71.22;47.88;;;17.40;99.90;;;;;;5040410;28;38736;-83
2021/09/18 07:30:22;;;;;;;59.85;42.83;;;17.50;99.90;;;;;;5039862;28;38670;-84
2021/09/18 07:32:48;;;;;;;63.35;42.92;;;17.50;99.90;;;;;;5035472;28;37866;-83
2021/09/18 07:35:15;;;;;;;58.83;41.35;;;17.60;99.90;;;;;;5051446;28;40313;-83
2021/09/18 07:37:41;;;;;;;58.83;40.35;;;17.70;99.90;;;;;;5035359;28;38118;-82
2021/09/18 07:40:11;;;;;;;66.03;44.67;;;17.80;99.90;;;;;;5046907;28;38333;-83
2021/09/18 07:42:38;;;;;;;53.70;39.60;;;17.80;99.90;;;;;;5051879;28;38429;-83
2021/09/18 07:45:07;;;;;;;57.05;39.78;;;17.80;99.90;;;;;;5034556;28;37709;-83
2021/09/18 07:47:33;;;;;;;54.47;38.50;;;18.00;99.90;;;;;;5049613;28;47665;-82
2021/09/18 07:50:00;;;;;;;54.95;39.10;;;18.10;99.90;;;;;;5052966;28;36880;-83
2021/09/18 07:52:26;;;;;;;47.97;36.67;;;18.10;99.90;;;;;;5020839;28;35898;-83
2021/09/18 07:54:52;;;;;;;55.85;39.38;;;18.20;99.90;;;;;;5036791;28;39766;-83
2021/09/18 07:57:18;;;;;;;50.83;36.38;;;18.40;99.90;;;;;;5030742;28;38900;-83
2021/09/18 07:59:44;;;;;;;52.35;38.65;;;18.50;99.90;;;;;;5037766;28;39207;-83
2021/09/18 08:02:10;;;;;;;51.05;37.75;;;18.60;99.90;;;;;;5048844;28;37212;-83
2021/09/18 08:04:38;;;;;;;46.95;33.58;;;18.70;99.90;;;;;;5057333;28;39602;-83
2021/09/18 08:07:04;;;;;;;47.95;34.45;;;18.80;99.90;;;;;;5052222;28;39265;-82
2021/09/18 08:09:30;;;;;;;48.33;34.83;;;18.90;99.90;;;;;;5041692;28;38302;-83
2021/09/18 08:11:58;;;;;;;47.78;34.85;;;18.80;99.90;;;;;;5044993;28;39031;-83
2021/09/18 08:14:25;;;;;;;51.30;35.38;;;18.90;99.90;;;;;;5051133;28;38844;-83
2021/09/18 08:16:51;;;;;;;44.63;34.78;;;19.00;99.90;;;;;;5037406;28;40222;-83
2021/09/18 08:19:18;;;;;;;47.70;34.08;;;19.10;99.90;;;;;;5055495;28;39139;-83
2021/09/18 08:21:45;;;;;;;48.40;33.63;;;19.10;99.90;;;;;;5037592;28;38149;-83
2021/09/18 08:24:11;;;;;;;45.13;32.13;;;19.10;99.90;;;;;;5054812;28;38604;-83
2021/09/18 08:26:37;;;;;;;44.55;31.48;;;19.20;99.90;;;;;;5039171;28;37233;-83
2021/09/18 08:29:03;;;;;;;45.47;33.15;;;19.30;99.90;;;;;;5056715;28;38091;-81
2021/09/18 08:31:30;;;;;;;45.55;33.58;;;19.40;99.90;;;;;;5040321;28;36297;-81
2021/09/18 08:33:56;;;;;;;46.95;33.75;;;19.50;99.90;;;;;;5033463;28;39219;-83
2021/09/18 08:36:22;;;;;;;42.90;31.15;;;19.40;99.90;;;;;;5049720;28;37672;-83
2021/09/18 08:38:48;;;;;;;42.50;31.13;;;19.50;99.90;;;;;;5036997;28;39740;-83
2021/09/18 08:41:15;;;;;;;42.42;31.63;;;19.60;99.90;;;;;;5055411;28;38082;-83
2021/09/18 08:43:42;;;;;;;43.88;32.63;;;19.70;99.90;;;;;;5037190;28;40133;-81
2021/09/18 08:46:09;;;;;;;41.90;31.10;;;19.80;99.90;;;;;;5041933;28;37180;-81
2021/09/18 08:48:40;;;;;;;43.45;29.33;;;19.90;99.90;;;;;;5041087;28;37469;-81
2021/09/18 08:51:06;;;;;;;48.45;34.53;;;20.00;99.90;;;;;;5052793;28;37826;-82
2021/09/18 08:53:33;;;;;;;48.08;33.33;;;19.90;99.90;;;;;;5038769;28;37552;-81
2021/09/18 08:56:00;;;;;;;43.10;31.02;;;20.10;99.90;;;;;;5039044;28;37997;-81
2021/09/18 08:58:26;;;;;;;36.22;27.70;;;20.10;99.90;;;;;;5038728;28;37547;-82
2021/09/18 09:00:54;;;;;;;36.95;28.67;;;20.30;99.90;;;;;;5032893;28;36612;-80
2021/09/18 09:03:33;;;;;;;42.00;31.50;;;20.30;99.90;;;;;;5047594;28;38571;-81
2021/09/18 09:06:06;;;;;;;41.03;30.05;;;20.40;99.90;;;;;;5051504;28;39217;-81
2021/09/18 09:08:33;;;;;;;45.10;33.15;;;20.40;99.90;;;;;;5036280;28;47213;-81
2021/09/18 09:11:17;;;;;;;37.83;28.40;;;20.50;99.90;;;;;;5037016;28;38708;-82
2021/09/18 09:14:04;;;;;;;41.30;31.65;;;20.50;99.90;;;;;;5052467;28;48212;-82
2021/09/18 09:16:33;;;;;;;43.20;29.13;;;20.60;99.90;;;;;;5055103;28;48824;-82
2021/09/18 09:19:16;;;;;;;38.30;29.27;;;20.70;99.90;;;;;;5033547;28;37483;-81
2021/09/18 09:21:53;;;;;;;40.17;29.30;;;20.80;99.90;;;;;;5046896;28;47104;-82
2021/09/18 09:24:23;;;;;;;39.13;29.83;;;20.90;99.90;;;;;;5041058;28;39626;-82
2021/09/18 09:27:12;;;;;;;38.38;28.70;;;20.90;99.90;;;;;;5044359;28;37189;-82
2021/09/18 09:29:49;;;;;;;38.05;29.05;;;21.00;99.90;;;;;;5067819;28;49089;-82
2021/09/18 09:32:35;;;;;;;38.22;25.75;;;21.00;99.90;;;;;;5058077;28;37807;-82
2021/09/18 09:35:08;;;;;;;38.22;28.35;;;21.10;99.90;;;;;;5043841;28;38722;-82
2021/09/18 09:37:35;;;;;;;37.97;28.60;;;21.20;99.90;;;;;;5036360;28;46933;-84
2021/09/18 09:40:07;;;;;;;38.47;29.33;;;21.20;99.90;;;;;;5058521;28;38846;-83
2021/09/18 09:42:45;;;;;;;38.45;30.13;;;21.30;99.90;;;;;;5060648;28;49028;-83
2021/09/18 09:45:22;;;;;;;43.17;30.55;;;21.30;99.90;;;;;;5041842;28;39411;-83
2021/09/18 09:48:06;;;;;;;39.00;28.15;;;21.30;99.90;;;;;;5051630;28;39914;-82
2021/09/18 09:50:33;;;;;;;43.40;30.48;;;21.50;99.90;;;;;;5061727;28;48201;-81
2021/09/18 09:53:00;;;;;;;37.50;28.30;;;21.50;99.90;;;;;;5055615;28;37037;-82
2021/09/18 09:55:26;;;;;;;40.50;28.48;;;21.40;99.90;;;;;;5045731;28;38885;-81
2021/09/18 09:58:07;;;;;;;40.25;31.88;;;21.60;99.90;;;;;;5053479;28;38338;-82
2021/09/18 10:01:03;;;;;;;39.47;31.17;;;21.80;99.90;;;;;;5058996;28;47545;-84
2021/09/18 10:03:29;;;;;;;38.78;27.50;;;21.80;99.90;;;;;;5061341;28;49318;-83
2021/09/18 10:05:56;;;;;;;36.60;27.73;;;21.90;99.90;;;;;;5038377;28;38126;-83
2021/09/18 10:08:34;;;;;;;33.10;24.90;;;22.00;99.90;;;;;;5047426;28;39521;-84
2021/09/18 10:11:41;;;;;;;32.90;25.00;;;22.10;99.90;;;;;;5048731;28;38533;-82
2021/09/18 10:14:31;;;;;;;28.58;20.92;;;22.40;99.90;;;;;;5065944;28;50093;-83
2021/09/18 10:17:04;;;;;;;22.83;17.73;;;22.70;99.90;;;;;;5075631;28;39267;-82
2021/09/18 10:24:54;;;;;;;19.77;16.50;;;23.00;99.90;;;;;;5042896;28;37967;-85
2021/09/18 10:27:25;;;;;;;25.40;20.90;;;22.90;99.90;;;;;;5033821;28;39241;-82
2021/09/18 10:29:52;;;;;;;22.33;18.17;;;22.60;99.90;;;;;;5036128;28;37204;-82
2021/09/18 10:32:20;;;;;;;23.10;17.08;;;22.80;99.90;;;;;;5037156;28;37735;-82
2021/09/18 10:34:47;;;;;;;18.88;15.57;;;22.80;99.90;;;;;;5054390;28;37684;-82
2021/09/18 10:37:35;;;;;;;22.23;16.73;;;22.70;99.90;;;;;;5033955;28;37820;-82
2021/09/18 10:40:15;;;;;;;26.48;19.73;;;22.90;99.90;;;;;;5048908;28;38319;-82
2021/09/18 10:42:44;;;;;;;20.33;16.40;;;22.90;99.90;;;;;;5036440;28;48652;-82
2021/09/18 10:45:13;;;;;;;21.83;16.85;;;23.10;99.90;;;;;;5048897;28;38221;-82
2021/09/18 10:47:41;;;;;;;18.35;14.60;;;23.40;99.90;;;;;;5028364;28;40870;-82
2021/09/18 10:50:23;;;;;;;18.00;12.27;;;23.50;99.90;;;;;;5041953;28;38790;-81
2021/09/18 10:53:00;;;;;;;13.57;11.20;;;23.20;99.90;;;;;;5028543;28;37527;-82
2021/09/18 10:55:28;;;;;;;17.35;13.10;;;23.30;99.90;;;;;;5049390;28;37446;-82
2021/09/18 10:57:58;;;;;;;15.73;10.77;;;23.40;99.90;;;;;;5048435;28;38980;-82
2021/09/18 11:00:24;;;;;;;14.48;10.55;;;23.50;99.90;;;;;;5051015;28;39616;-81
2021/09/18 11:02:54;;;;;;;15.32;11.70;;;23.50;99.90;;;;;;5034288;28;38924;-83
2021/09/18 11:05:20;;;;;;;15.68;11.98;;;23.30;99.90;;;;;;5051724;28;37611;-82
2021/09/18 11:07:50;;;;;;;15.23;10.20;;;23.00;99.90;;;;;;5055167;28;39606;-82
2021/09/18 11:10:19;;;;;;;13.15;11.02;;;23.10;99.90;;;;;;5052325;28;38271;-82
2021/09/18 11:13:06;;;;;;;13.38;11.23;;;23.40;99.90;;;;;;5033789;28;38434;-82
2021/09/18 11:15:53;;;;;;;16.15;11.98;;;23.30;99.90;;;;;;5039855;28;48651;-82
2021/09/18 11:18:36;;;;;;;13.65;10.60;;;23.40;99.90;;;;;;5055168;28;39752;-82
2021/09/18 11:21:09;;;;;;;16.17;12.27;;;23.40;99.90;;;;;;5036621;28;39518;-80
2021/09/18 11:23:51;;;;;;;16.15;12.43;;;23.40;99.90;;;;;;5054206;28;38000;-83
2021/09/18 11:26:46;;;;;;;16.00;11.32;;;23.40;99.90;;;;;;5056582;28;37577;-83
2021/09/18 11:29:21;;;;;;;11.45;9.38;;;23.40;99.90;;;;;;5056495;28;38868;-83
2021/09/18 11:31:55;;;;;;;9.95;8.70;;;23.40;99.90;;;;;;5054798;28;39571;-83
2021/09/18 11:34:26;;;;;;;13.63;11.70;;;23.60;99.90;;;;;;5050293;28;38107;-82
2021/09/18 11:36:54;;;;;;;13.50;11.23;;;23.50;99.90;;;;;;5027641;28;37732;-82
2021/09/18 11:39:44;;;;;;;13.90;10.60;;;23.70;99.90;;;;;;5031923;28;39235;-82
2021/09/18 11:42:16;;;;;;;15.23;11.00;;;23.90;99.90;;;;;;5031885;28;39098;-82
2021/09/18 11:44:43;;;;;;;17.10;12.00;;;23.90;99.90;;;;;;5031727;28;39032;-82
2021/09/18 11:47:10;;;;;;;19.38;13.00;;;23.50;99.90;;;;;;5030445;28;38235;-82
2021/09/18 11:49:36;;;;;;;15.02;11.52;;;23.60;99.90;;;;;;5032818;28;39420;-82
2021/09/18 11:52:04;;;;;;;13.70;11.73;;;23.60;99.90;;;;;;5051151;28;38431;-82
2021/09/18 11:54:32;;;;;;;12.45;10.10;;;23.50;99.90;;;;;;5052803;28;37145;-82
2021/09/18 11:57:12;;;;;;;10.18;8.90;;;23.60;99.90;;;;;;5030987;28;38883;-81
2021/09/18 11:59:39;;;;;;;12.93;9.88;;;23.80;99.90;;;;;;5043963;28;46938;-83
2021/09/18 12:02:05;;;;;;;10.23;8.98;;;23.70;99.90;;;;;;5033573;28;39732;-82
2021/09/18 12:04:45;;;;;;;9.48;7.70;;;23.80;99.90;;;;;;5037916;28;38255;-82
2021/09/18 12:07:13;;;;;;;7.35;5.40;;;23.70;99.90;;;;;;5052708;28;37096;-82
2021/09/18 12:09:40;;;;;;;6.20;4.80;;;23.70;99.90;;;;;;5035390;28;39463;-82
2021/09/18 12:12:07;;;;;;;5.32;3.63;;;23.90;99.90;;;;;;5042757;28;38954;-82
2021/09/18 12:14:37;;;;;;;5.00;4.00;;;24.20;99.90;;;;;;5033344;28;38322;-82
2021/09/18 12:17:18;;;;;;;7.22;5.10;;;24.30;99.90;;;;;;5031415;28;36491;-82
2021/09/18 12:19:45;;;;;;;6.32;4.72;;;24.30;99.90;;;;;;5034646;28;41707;-82
2021/09/18 12:22:12;;;;;;;7.25;4.97;;;23.90;99.90;;;;;;5035992;28;39963;-81
2021/09/18 12:24:41;;;;;;;6.78;5.30;;;23.80;99.90;;;;;;5041728;28;37047;-82
2021/09/18 12:27:28;;;;;;;7.57;5.72;;;23.40;99.90;;;;;;5052422;28;38074;-82
2021/09/18 12:29:56;;;;;;;8.25;6.00;;;23.10;99.90;;;;;;5032090;28;37803;-82
2021/09/18 12:32:22;;;;;;;8.85;6.63;;;22.80;99.90;;;;;;5046439;28;39274;-82
2021/09/18 12:34:49;;;;;;;6.80;6.10;;;22.80;99.90;;;;;;5046750;28;38392;-82
2021/09/18 12:37:17;;;;;;;8.90;6.57;;;23.10;99.90;;;;;;5032864;28;37410;-82
2021/09/18 12:39:43;;;;;;;6.15;5.28;;;23.40;99.90;;;;;;5035519;28;39214;-82